sensor_id;sensor_type;location;lat;lon;timestamp;pressure;altitude;pressure_sealevel;temperature;humidity
64711;BME280;51139;45.626;6.850;2023-04-26T05:59:18;81715.09;;;-1.21;61.41
64711;BME280;51139;45.626;6.850;2023-04-26T06:01:44;81709.41;;;-1.00;60.33
64711;BME280;51139;45.626;6.850;2023-04-26T06:04:09;81706.31;;;-0.98;58.45
64711;BME280;51139;45.626;6.850;2023-04-26T06:06:35;81709.84;;;-0.77;56.98
64711;BME280;51139;45.626;6.850;2023-04-26T06:09:01;81708.56;;;-0.51;55.52
64711;BME280;51139;45.626;6.850;2023-04-26T06:11:26;81709.94;;;-0.31;54.60
64711;BME280;51139;45.626;6.850;2023-04-26T06:13:52;81702.16;;;0.16;51.51
64711;BME280;51139;45.626;6.850;2023-04-26T06:16:17;81709.19;;;0.34;51.18
64711;BME280;51139;45.626;6.850;2023-04-26T06:18:42;81704.91;;;0.50;51.01
64711;BME280;51139;45.626;6.850;2023-04-26T06:21:08;81703.19;;;0.53;49.77
64711;BME280;51139;45.626;6.850;2023-04-26T06:23:33;81703.69;;;0.65;49.99
64711;BME280;51139;45.626;6.850;2023-04-26T06:25:58;81704.13;;;1.30;49.93
64711;BME280;51139;45.626;6.850;2023-04-26T06:28:24;81711.00;;;1.55;48.23
64711;BME280;51139;45.626;6.850;2023-04-26T06:30:50;81698.59;;;1.48;49.00
64711;BME280;51139;45.626;6.850;2023-04-26T06:33:15;81698.53;;;1.26;46.50
64711;BME280;51139;45.626;6.850;2023-04-26T06:35:41;81705.84;;;1.63;46.89
64711;BME280;51139;45.626;6.850;2023-04-26T06:38:06;81702.50;;;1.75;47.03
64711;BME280;51139;45.626;6.850;2023-04-26T06:40:32;81705.94;;;1.70;42.42
64711;BME280;51139;45.626;6.850;2023-04-26T06:42:57;81711.66;;;1.82;43.01
64711;BME280;51139;45.626;6.850;2023-04-26T06:45:23;81714.25;;;1.82;42.18
64711;BME280;51139;45.626;6.850;2023-04-26T06:47:51;81710.72;;;2.36;43.30
64711;BME280;51139;45.626;6.850;2023-04-26T06:50:19;81719.72;;;2.77;44.49
64711;BME280;51139;45.626;6.850;2023-04-26T06:52:45;81724.94;;;2.77;42.12
64711;BME280;51139;45.626;6.850;2023-04-26T06:55:10;81723.41;;;2.82;42.61
64711;BME280;51139;45.626;6.850;2023-04-26T06:57:36;81725.50;;;3.41;43.59
64711;BME280;51139;45.626;6.850;2023-04-26T07:00:02;81726.09;;;3.63;39.50
64711;BME280;51139;45.626;6.850;2023-04-26T07:02:28;81722.81;;;3.70;38.38
64711;BME280;51139;45.626;6.850;2023-04-26T07:04:54;81724.75;;;3.33;37.85
64711;BME280;51139;45.626;6.850;2023-04-26T07:07:20;81725.09;;;3.00;33.15
64711;BME280;51139;45.626;6.850;2023-04-26T07:09:45;81718.78;;;3.69;37.08
64711;BME280;51139;45.626;6.850;2023-04-26T07:12:11;81718.84;;;3.85;37.19
64711;BME280;51139;45.626;6.850;2023-04-26T07:14:36;81720.31;;;3.57;36.30
64711;BME280;51139;45.626;6.850;2023-04-26T07:17:05;81725.25;;;4.28;36.17
64711;BME280;51139;45.626;6.850;2023-04-26T07:19:30;81716.88;;;4.37;36.51
64711;BME280;51139;45.626;6.850;2023-04-26T07:21:56;81720.31;;;4.01;37.30
64711;BME280;51139;45.626;6.850;2023-04-26T07:24:21;81713.25;;;4.87;34.95
64711;BME280;51139;45.626;6.850;2023-04-26T07:26:46;81713.38;;;4.43;35.85
64711;BME280;51139;45.626;6.850;2023-04-26T07:29:12;81719.69;;;4.47;38.65
64711;BME280;51139;45.626;6.850;2023-04-26T07:31:37;81719.16;;;4.49;35.48
64711;BME280;51139;45.626;6.850;2023-04-26T07:34:02;81715.34;;;4.58;34.45
64711;BME280;51139;45.626;6.850;2023-04-26T07:36:28;81717.78;;;5.10;39.71
64711;BME280;51139;45.626;6.850;2023-04-26T07:38:53;81718.47;;;4.56;36.88
64711;BME280;51139;45.626;6.850;2023-04-26T07:41:19;81715.47;;;4.36;35.06
64711;BME280;51139;45.626;6.850;2023-04-26T07:43:44;81697.69;;;5.69;36.25
64711;BME280;51139;45.626;6.850;2023-04-26T07:46:10;81704.44;;;4.22;32.87
64711;BME280;51139;45.626;6.850;2023-04-26T07:48:35;81695.56;;;4.95;37.83
64711;BME280;51139;45.626;6.850;2023-04-26T07:51:08;81694.88;;;4.56;40.02
64711;BME280;51139;45.626;6.850;2023-04-26T07:53:34;81694.50;;;5.14;41.09
64711;BME280;51139;45.626;6.850;2023-04-26T07:55:59;81690.66;;;5.00;34.26
64711;BME280;51139;45.626;6.850;2023-04-26T07:58:25;81693.78;;;5.21;35.31
64711;BME280;51139;45.626;6.850;2023-04-26T08:00:50;81689.22;;;5.22;36.91
64711;BME280;51139;45.626;6.850;2023-04-26T08:03:16;81694.28;;;5.35;31.51
64711;BME280;51139;45.626;6.850;2023-04-26T08:05:42;81695.22;;;5.07;34.78
64711;BME280;51139;45.626;6.850;2023-04-26T08:08:08;81693.75;;;6.42;35.09
64711;BME280;51139;45.626;6.850;2023-04-26T08:10:33;81692.03;;;6.62;33.02
64711;BME280;51139;45.626;6.850;2023-04-26T08:12:58;81696.47;;;6.19;36.83
64711;BME280;51139;45.626;6.850;2023-04-26T08:15:27;81685.47;;;6.46;36.28
64711;BME280;51139;45.626;6.850;2023-04-26T08:17:53;81691.22;;;5.70;29.19
64711;BME280;51139;45.626;6.850;2023-04-26T08:20:19;81693.50;;;6.22;35.19
64711;BME280;51139;45.626;6.850;2023-04-26T08:22:45;81695.50;;;5.98;32.73
64711;BME280;51139;45.626;6.850;2023-04-26T08:25:11;81695.91;;;6.61;35.88
64711;BME280;51139;45.626;6.850;2023-04-26T08:27:36;81693.88;;;6.77;31.60
64711;BME280;51139;45.626;6.850;2023-04-26T08:30:02;81685.53;;;7.14;30.83
64711;BME280;51139;45.626;6.850;2023-04-26T08:32:28;81686.94;;;6.90;34.88
64711;BME280;51139;45.626;6.850;2023-04-26T08:34:53;81694.34;;;7.52;31.12
64711;BME280;51139;45.626;6.850;2023-04-26T08:37:19;81698.09;;;8.01;31.37
64711;BME280;51139;45.626;6.850;2023-04-26T08:39:44;81695.44;;;7.49;32.78
64711;BME280;51139;45.626;6.850;2023-04-26T08:42:15;81700.84;;;7.33;32.01
64711;BME280;51139;45.626;6.850;2023-04-26T08:44:42;81703.22;;;6.37;31.71
64711;BME280;51139;45.626;6.850;2023-04-26T08:47:20;81702.22;;;5.84;34.29
64711;BME280;51139;45.626;6.850;2023-04-26T08:49:50;81696.41;;;6.93;31.19
64711;BME280;51139;45.626;6.850;2023-04-26T08:52:22;81704.53;;;7.12;36.66
64711;BME280;51139;45.626;6.850;2023-04-26T08:54:49;81700.41;;;7.19;36.91
64711;BME280;51139;45.626;6.850;2023-04-26T08:57:16;81708.50;;;7.39;35.71
64711;BME280;51139;45.626;6.850;2023-04-26T08:59:42;81714.03;;;7.08;38.95
64711;BME280;51139;45.626;6.850;2023-04-26T09:02:09;81708.06;;;7.07;37.63
64711;BME280;51139;45.626;6.850;2023-04-26T09:04:35;81712.91;;;7.19;38.40
64711;BME280;51139;45.626;6.850;2023-04-26T09:07:03;81712.63;;;6.81;37.28
64711;BME280;51139;45.626;6.850;2023-04-26T09:09:34;81715.53;;;7.62;37.97
64711;BME280;51139;45.626;6.850;2023-04-26T09:12:03;81717.94;;;6.99;43.25
64711;BME280;51139;45.626;6.850;2023-04-26T09:14:29;81716.69;;;7.25;36.69
64711;BME280;51139;45.626;6.850;2023-04-26T09:16:55;81714.38;;;7.04;45.55
64711;BME280;51139;45.626;6.850;2023-04-26T09:19:38;81719.59;;;7.37;40.99
64711;BME280;51139;45.626;6.850;2023-04-26T09:22:05;81715.84;;;6.39;38.78
64711;BME280;51139;45.626;6.850;2023-04-26T09:24:50;81719.59;;;6.28;34.30
64711;BME280;51139;45.626;6.850;2023-04-26T09:27:18;81723.44;;;6.60;34.92
64711;BME280;51139;45.626;6.850;2023-04-26T09:29:57;81719.25;;;7.15;35.46
64711;BME280;51139;45.626;6.850;2023-04-26T09:32:24;81726.56;;;7.85;34.60
64711;BME280;51139;45.626;6.850;2023-04-26T09:34:50;81715.28;;;8.20;30.92
64711;BME280;51139;45.626;6.850;2023-04-26T09:37:16;81721.88;;;8.11;31.61
64711;BME280;51139;45.626;6.850;2023-04-26T09:39:41;81728.16;;;8.51;29.80
64711;BME280;51139;45.626;6.850;2023-04-26T09:42:10;81732.84;;;8.08;29.03
64711;BME280;51139;45.626;6.850;2023-04-26T09:44:36;81727.38;;;7.88;33.99
64711;BME280;51139;45.626;6.850;2023-04-26T09:47:09;81735.38;;;8.33;30.94
64711;BME280;51139;45.626;6.850;2023-04-26T09:49:49;81736.50;;;9.02;27.49
64711;BME280;51139;45.626;6.850;2023-04-26T09:52:16;81728.91;;;8.61;21.05
64711;BME280;51139;45.626;6.850;2023-04-26T09:54:46;81733.50;;;8.26;21.93
64711;BME280;51139;45.626;6.850;2023-04-26T09:57:14;81736.03;;;8.96;22.46
64711;BME280;51139;45.626;6.850;2023-04-26T09:59:43;81733.38;;;9.24;22.41
64711;BME280;51139;45.626;6.850;2023-04-26T10:02:22;81731.94;;;9.13;21.64
64711;BME280;51139;45.626;6.850;2023-04-26T10:04:53;81740.38;;;9.29;25.67
64711;BME280;51139;45.626;6.850;2023-04-26T10:07:24;81726.41;;;8.64;20.21
64711;BME280;51139;45.626;6.850;2023-04-26T10:09:50;81732.00;;;8.68;21.21
64711;BME280;51139;45.626;6.850;2023-04-26T10:12:17;81732.25;;;8.62;20.88
64711;BME280;51139;45.626;6.850;2023-04-26T10:14:44;81729.97;;;8.76;23.07
64711;BME280;51139;45.626;6.850;2023-04-26T10:17:11;81733.44;;;8.51;20.53
64711;BME280;51139;45.626;6.850;2023-04-26T10:19:38;81743.47;;;8.53;22.18
64711;BME280;51139;45.626;6.850;2023-04-26T10:22:08;81742.22;;;9.09;29.93
64711;BME280;51139;45.626;6.850;2023-04-26T10:24:35;81742.72;;;8.70;24.24
64711;BME280;51139;45.626;6.850;2023-04-26T10:27:01;81736.25;;;9.08;23.86
64711;BME280;51139;45.626;6.850;2023-04-26T10:30:07;81743.59;;;9.37;24.92
64711;BME280;51139;45.626;6.850;2023-04-26T10:35:26;81732.03;;;9.32;20.75
64711;BME280;51139;45.626;6.850;2023-04-26T10:40:31;81733.81;;;9.67;27.79
64711;BME280;51139;45.626;6.850;2023-04-26T10:45:42;81737.88;;;9.03;32.23
64711;BME280;51139;45.626;6.850;2023-04-26T10:48:21;81741.69;;;9.47;26.53
64711;BME280;51139;45.626;6.850;2023-04-26T10:58:48;81727.28;;;8.66;22.63
64711;BME280;51139;45.626;6.850;2023-04-26T11:01:18;81732.16;;;9.25;26.97
64711;BME280;51139;45.626;6.850;2023-04-26T11:06:26;81735.75;;;9.19;29.23
64711;BME280;51139;45.626;6.850;2023-04-26T11:08:53;81730.63;;;9.69;26.73
64711;BME280;51139;45.626;6.850;2023-04-26T11:11:18;81731.25;;;9.12;23.14
64711;BME280;51139;45.626;6.850;2023-04-26T11:13:46;81721.81;;;9.56;25.05
64711;BME280;51139;45.626;6.850;2023-04-26T11:16:15;81720.66;;;10.26;25.88
64711;BME280;51139;45.626;6.850;2023-04-26T11:18:45;81731.91;;;9.87;28.72
64711;BME280;51139;45.626;6.850;2023-04-26T11:21:12;81726.78;;;9.99;31.43
64711;BME280;51139;45.626;6.850;2023-04-26T11:23:42;81728.91;;;10.20;28.49
64711;BME280;51139;45.626;6.850;2023-04-26T11:26:08;81729.59;;;10.41;25.40
64711;BME280;51139;45.626;6.850;2023-04-26T11:28:37;81726.22;;;10.11;26.86
64711;BME280;51139;45.626;6.850;2023-04-26T11:31:04;81721.91;;;10.05;26.82
64711;BME280;51139;45.626;6.850;2023-04-26T11:33:31;81726.41;;;10.62;28.62
64711;BME280;51139;45.626;6.850;2023-04-26T11:35:58;81723.22;;;10.63;33.74
64711;BME280;51139;45.626;6.850;2023-04-26T11:38:25;81724.16;;;10.68;30.81
64711;BME280;51139;45.626;6.850;2023-04-26T11:40:58;81727.19;;;10.94;27.99
64711;BME280;51139;45.626;6.850;2023-04-26T11:43:37;81722.03;;;10.96;29.16
64711;BME280;51139;45.626;6.850;2023-04-26T11:46:04;81718.09;;;11.17;25.26
64711;BME280;51139;45.626;6.850;2023-04-26T11:48:30;81707.50;;;11.07;24.15
64711;BME280;51139;45.626;6.850;2023-04-26T11:50:56;81711.28;;;11.14;23.96
64711;BME280;51139;45.626;6.850;2023-04-26T11:53:36;81702.22;;;11.07;25.56
64711;BME280;51139;45.626;6.850;2023-04-26T11:56:03;81707.88;;;10.72;28.62
64711;BME280;51139;45.626;6.850;2023-04-26T11:58:29;81713.31;;;10.64;28.10
64711;BME280;51139;45.626;6.850;2023-04-26T12:00:59;81707.69;;;10.79;28.53
64711;BME280;51139;45.626;6.850;2023-04-26T12:03:32;81700.81;;;11.06;24.53
64711;BME280;51139;45.626;6.850;2023-04-26T12:06:02;81704.47;;;10.91;25.28
64711;BME280;51139;45.626;6.850;2023-04-26T12:08:28;81705.03;;;9.91;30.35
64711;BME280;51139;45.626;6.850;2023-04-26T12:11:01;81709.69;;;10.30;28.29
64711;BME280;51139;45.626;6.850;2023-04-26T12:13:30;81714.25;;;10.78;26.86
64711;BME280;51139;45.626;6.850;2023-04-26T12:15:56;81699.34;;;10.73;24.12
64711;BME280;51139;45.626;6.850;2023-04-26T12:18:29;81706.66;;;11.04;26.25
64711;BME280;51139;45.626;6.850;2023-04-26T12:20:57;81710.50;;;11.33;25.13
64711;BME280;51139;45.626;6.850;2023-04-26T12:23:23;81706.97;;;10.99;25.20
64711;BME280;51139;45.626;6.850;2023-04-26T12:25:53;81701.34;;;10.43;26.70
64711;BME280;51139;45.626;6.850;2023-04-26T12:28:21;81704.53;;;10.51;26.57
64711;BME280;51139;45.626;6.850;2023-04-26T12:30:47;81707.88;;;10.62;22.67
64711;BME280;51139;45.626;6.850;2023-04-26T12:33:13;81708.25;;;10.88;25.38
64711;BME280;51139;45.626;6.850;2023-04-26T12:35:38;81707.16;;;10.71;24.08
64711;BME280;51139;45.626;6.850;2023-04-26T12:38:04;81709.25;;;10.63;24.80
64711;BME280;51139;45.626;6.850;2023-04-26T12:40:29;81710.63;;;10.05;21.83
64711;BME280;51139;45.626;6.850;2023-04-26T12:42:56;81710.06;;;10.26;26.13
64711;BME280;51139;45.626;6.850;2023-04-26T12:45:23;81720.97;;;10.40;25.82
64711;BME280;51139;45.626;6.850;2023-04-26T12:47:49;81715.38;;;10.36;29.45
64711;BME280;51139;45.626;6.850;2023-04-26T12:50:15;81714.81;;;10.57;25.56
64711;BME280;51139;45.626;6.850;2023-04-26T12:52:42;81720.13;;;10.67;26.95
64711;BME280;51139;45.626;6.850;2023-04-26T12:55:09;81726.69;;;10.66;26.31
64711;BME280;51139;45.626;6.850;2023-04-26T12:57:37;81731.44;;;10.58;27.59
64711;BME280;51139;45.626;6.850;2023-04-26T13:00:04;81725.13;;;10.92;24.09
64711;BME280;51139;45.626;6.850;2023-04-26T13:02:29;81723.06;;;10.51;23.57
64711;BME280;51139;45.626;6.850;2023-04-26T13:04:55;81718.03;;;10.36;26.90
64711;BME280;51139;45.626;6.850;2023-04-26T13:07:21;81726.53;;;10.64;28.42
64711;BME280;51139;45.626;6.850;2023-04-26T13:09:46;81719.44;;;10.47;27.01
64711;BME280;51139;45.626;6.850;2023-04-26T13:12:11;81716.38;;;10.41;25.33
64711;BME280;51139;45.626;6.850;2023-04-26T13:14:38;81719.31;;;10.64;29.07
64711;BME280;51139;45.626;6.850;2023-04-26T13:17:04;81726.34;;;11.01;24.41
64711;BME280;51139;45.626;6.850;2023-04-26T13:19:30;81717.19;;;10.73;27.70
64711;BME280;51139;45.626;6.850;2023-04-26T13:21:55;81715.25;;;10.54;28.62
64711;BME280;51139;45.626;6.850;2023-04-26T13:24:20;81703.56;;;10.67;29.57
64711;BME280;51139;45.626;6.850;2023-04-26T13:26:46;81710.09;;;10.56;31.34
64711;BME280;51139;45.626;6.850;2023-04-26T13:29:12;81697.00;;;10.48;26.70
64711;BME280;51139;45.626;6.850;2023-04-26T13:31:37;81711.41;;;11.06;27.85
64711;BME280;51139;45.626;6.850;2023-04-26T13:34:04;81711.63;;;10.59;28.24
64711;BME280;51139;45.626;6.850;2023-04-26T13:36:29;81712.19;;;10.67;28.30
64711;BME280;51139;45.626;6.850;2023-04-26T13:38:56;81713.00;;;10.79;28.29
64711;BME280;51139;45.626;6.850;2023-04-26T13:41:21;81704.22;;;10.18;28.49
64711;BME280;51139;45.626;6.850;2023-04-26T13:43:48;81703.56;;;10.57;28.72
64711;BME280;51139;45.626;6.850;2023-04-26T13:46:13;81698.31;;;10.98;32.75
64711;BME280;51139;45.626;6.850;2023-04-26T13:48:38;81707.31;;;10.63;29.29
64711;BME280;51139;45.626;6.850;2023-04-26T13:51:04;81699.66;;;10.68;30.06
64711;BME280;51139;45.626;6.850;2023-04-26T13:53:30;81714.00;;;10.64;29.99
64711;BME280;51139;45.626;6.850;2023-04-26T13:55:55;81719.41;;;10.76;29.55
64711;BME280;51139;45.626;6.850;2023-04-26T13:58:21;81713.25;;;10.93;29.59
64711;BME280;51139;45.626;6.850;2023-04-26T14:00:46;81708.13;;;10.56;30.72
64711;BME280;51139;45.626;6.850;2023-04-26T14:03:12;81719.69;;;10.80;27.77
64711;BME280;51139;45.626;6.850;2023-04-26T14:05:38;81708.41;;;10.70;31.85
64711;BME280;51139;45.626;6.850;2023-04-26T14:08:03;81703.88;;;11.02;29.96
64711;BME280;51139;45.626;6.850;2023-04-26T14:10:29;81708.41;;;10.31;29.18
64711;BME280;51139;45.626;6.850;2023-04-26T14:12:54;81716.38;;;10.60;30.93
64711;BME280;51139;45.626;6.850;2023-04-26T14:15:20;81711.50;;;10.47;30.78
64711;BME280;51139;45.626;6.850;2023-04-26T14:17:46;81701.03;;;10.39;31.33
64711;BME280;51139;45.626;6.850;2023-04-26T14:20:12;81706.03;;;10.74;34.21
64711;BME280;51139;45.626;6.850;2023-04-26T14:22:37;81713.91;;;11.14;27.47
64711;BME280;51139;45.626;6.850;2023-04-26T14:25:03;81708.69;;;10.84;29.24
64711;BME280;51139;45.626;6.850;2023-04-26T14:27:28;81713.91;;;11.14;29.37
64711;BME280;51139;45.626;6.850;2023-04-26T14:29:54;81712.84;;;10.87;28.79
64711;BME280;51139;45.626;6.850;2023-04-26T14:32:19;81705.75;;;10.70;27.99
64711;BME280;51139;45.626;6.850;2023-04-26T14:34:45;81706.50;;;10.41;29.36
64711;BME280;51139;45.626;6.850;2023-04-26T14:37:10;81718.88;;;10.68;30.71
64711;BME280;51139;45.626;6.850;2023-04-26T14:39:36;81711.34;;;10.74;30.00
64711;BME280;51139;45.626;6.850;2023-04-26T14:42:01;81719.53;;;10.88;28.50
64711;BME280;51139;45.626;6.850;2023-04-26T14:44:28;81715.06;;;11.01;27.66
64711;BME280;51139;45.626;6.850;2023-04-26T14:46:53;81717.56;;;10.99;30.57
64711;BME280;51139;45.626;6.850;2023-04-26T14:49:19;81715.63;;;10.89;29.09
64711;BME280;51139;45.626;6.850;2023-04-26T14:51:45;81715.66;;;10.79;30.43
64711;BME280;51139;45.626;6.850;2023-04-26T14:54:10;81727.09;;;10.82;28.64
64711;BME280;51139;45.626;6.850;2023-04-26T14:56:36;81720.13;;;10.28;31.70
64711;BME280;51139;45.626;6.850;2023-04-26T14:59:02;81725.25;;;10.85;28.56
64711;BME280;51139;45.626;6.850;2023-04-26T15:01:30;81727.38;;;10.67;28.14
64711;BME280;51139;45.626;6.850;2023-04-26T15:03:56;81742.28;;;10.52;30.76
64711;BME280;51139;45.626;6.850;2023-04-26T15:06:21;81739.75;;;9.58;29.95
64711;BME280;51139;45.626;6.850;2023-04-26T15:08:48;81728.50;;;9.57;30.13
64711;BME280;51139;45.626;6.850;2023-04-26T15:11:13;81746.03;;;9.62;28.63
64711;BME280;51139;45.626;6.850;2023-04-26T15:13:39;81738.63;;;9.14;31.91
64711;BME280;51139;45.626;6.850;2023-04-26T15:16:05;81750.81;;;9.74;29.17
64711;BME280;51139;45.626;6.850;2023-04-26T15:18:31;81752.00;;;9.53;29.02
64711;BME280;51139;45.626;6.850;2023-04-26T15:20:57;81743.84;;;9.69;30.07
64711;BME280;51139;45.626;6.850;2023-04-26T15:23:22;81755.28;;;9.81;30.24
64711;BME280;51139;45.626;6.850;2023-04-26T15:25:48;81758.19;;;9.75;28.70
64711;BME280;51139;45.626;6.850;2023-04-26T15:28:13;81742.09;;;9.44;28.71
64711;BME280;51139;45.626;6.850;2023-04-26T15:30:39;81741.84;;;9.12;29.46
64711;BME280;51139;45.626;6.850;2023-04-26T15:33:04;81741.38;;;9.43;29.46
64711;BME280;51139;45.626;6.850;2023-04-26T15:35:31;81759.16;;;8.51;27.63
64711;BME280;51139;45.626;6.850;2023-04-26T15:37:57;81766.34;;;8.95;28.31
64711;BME280;51139;45.626;6.850;2023-04-26T15:40:22;81757.81;;;8.42;29.58
64711;BME280;51139;45.626;6.850;2023-04-26T15:42:52;81769.59;;;8.58;31.13
64711;BME280;51139;45.626;6.850;2023-04-26T15:45:18;81755.72;;;8.40;31.53
64711;BME280;51139;45.626;6.850;2023-04-26T15:47:44;81755.97;;;8.80;29.40
64711;BME280;51139;45.626;6.850;2023-04-26T15:50:10;81753.63;;;8.84;30.09
64711;BME280;51139;45.626;6.850;2023-04-26T15:52:36;81770.28;;;9.31;31.40
64711;BME280;51139;45.626;6.850;2023-04-26T15:55:02;81765.34;;;9.18;28.54
64711;BME280;51139;45.626;6.850;2023-04-26T15:57:29;81774.78;;;9.11;28.65
64711;BME280;51139;45.626;6.850;2023-04-26T15:59:56;81766.25;;;9.30;28.83
64711;BME280;51139;45.626;6.850;2023-04-26T16:02:21;81757.13;;;8.59;29.25
64711;BME280;51139;45.626;6.850;2023-04-26T16:04:47;81775.69;;;9.24;29.33
64711;BME280;51139;45.626;6.850;2023-04-26T16:07:12;81778.63;;;9.00;28.26
64711;BME280;51139;45.626;6.850;2023-04-26T16:09:38;81768.97;;;8.85;28.72
64711;BME280;51139;45.626;6.850;2023-04-26T16:12:05;81765.78;;;8.69;29.75
64711;BME280;51139;45.626;6.850;2023-04-26T16:14:33;81763.66;;;9.13;28.56
64711;BME280;51139;45.626;6.850;2023-04-26T16:16:58;81762.06;;;8.72;29.31
64711;BME280;51139;45.626;6.850;2023-04-26T16:19:25;81772.66;;;9.37;30.02
64711;BME280;51139;45.626;6.850;2023-04-26T16:21:51;81778.53;;;9.45;28.37
64711;BME280;51139;45.626;6.850;2023-04-26T16:24:16;81778.41;;;9.16;28.48
64711;BME280;51139;45.626;6.850;2023-04-26T16:26:43;81781.91;;;9.18;29.70
64711;BME280;51139;45.626;6.850;2023-04-26T16:29:09;81780.00;;;9.01;29.47
64711;BME280;51139;45.626;6.850;2023-04-26T16:31:34;81778.50;;;8.81;29.59
64711;BME280;51139;45.626;6.850;2023-04-26T16:34:00;81781.53;;;8.77;30.37
64711;BME280;51139;45.626;6.850;2023-04-26T16:36:25;81772.41;;;8.43;30.12
64711;BME280;51139;45.626;6.850;2023-04-26T16:38:52;81780.72;;;8.57;30.74
64711;BME280;51139;45.626;6.850;2023-04-26T16:41:17;81783.94;;;8.83;31.74
64711;BME280;51139;45.626;6.850;2023-04-26T16:43:43;81781.88;;;8.64;32.25
64711;BME280;51139;45.626;6.850;2023-04-26T16:46:08;81787.66;;;8.80;31.59
64711;BME280;51139;45.626;6.850;2023-04-26T16:48:35;81785.72;;;8.80;31.48
64711;BME280;51139;45.626;6.850;2023-04-26T16:51:02;81780.13;;;8.94;31.58
64711;BME280;51139;45.626;6.850;2023-04-26T16:53:28;81778.09;;;8.57;31.94
64711;BME280;51139;45.626;6.850;2023-04-26T16:55:54;81770.81;;;8.75;32.94
64711;BME280;51139;45.626;6.850;2023-04-26T16:58:20;81783.03;;;8.70;33.29
64711;BME280;51139;45.626;6.850;2023-04-26T17:00:45;81773.00;;;8.69;32.48
64711;BME280;51139;45.626;6.850;2023-04-26T17:03:11;81783.94;;;8.30;33.96
64711;BME280;51139;45.626;6.850;2023-04-26T17:05:40;81784.75;;;8.40;33.53
64711;BME280;51139;45.626;6.850;2023-04-26T17:08:07;81783.88;;;8.73;33.25
64711;BME280;51139;45.626;6.850;2023-04-26T17:10:34;81785.34;;;8.13;33.98
64711;BME280;51139;45.626;6.850;2023-04-26T17:13:01;81782.88;;;8.33;34.70
64711;BME280;51139;45.626;6.850;2023-04-26T17:15:27;81786.59;;;8.47;34.45
64711;BME280;51139;45.626;6.850;2023-04-26T17:17:53;81786.00;;;8.57;34.50
64711;BME280;51139;45.626;6.850;2023-04-26T17:20:19;81787.84;;;8.64;34.56
64711;BME280;51139;45.626;6.850;2023-04-26T17:22:44;81794.22;;;8.61;35.14
64711;BME280;51139;45.626;6.850;2023-04-26T17:25:09;81798.25;;;8.44;35.54
64711;BME280;51139;45.626;6.850;2023-04-26T17:27:35;81791.56;;;8.26;35.00
64711;BME280;51139;45.626;6.850;2023-04-26T17:30:00;81793.41;;;8.15;35.43
64711;BME280;51139;45.626;6.850;2023-04-26T17:32:26;81807.69;;;8.12;36.07
64711;BME280;51139;45.626;6.850;2023-04-26T17:34:51;81807.06;;;8.04;35.73
64711;BME280;51139;45.626;6.850;2023-04-26T17:37:16;81794.09;;;7.81;35.95
64711;BME280;51139;45.626;6.850;2023-04-26T17:39:42;81807.63;;;8.02;36.48
64711;BME280;51139;45.626;6.850;2023-04-26T17:42:07;81810.94;;;7.85;36.88
64711;BME280;51139;45.626;6.850;2023-04-26T17:44:32;81805.03;;;7.95;35.82
64711;BME280;51139;45.626;6.850;2023-04-26T17:46:58;81812.13;;;8.10;36.42
64711;BME280;51139;45.626;6.850;2023-04-26T17:49:23;81814.16;;;8.01;36.47
64711;BME280;51139;45.626;6.850;2023-04-26T17:51:52;81811.69;;;7.78;37.09
64711;BME280;51139;45.626;6.850;2023-04-26T17:54:18;81811.03;;;7.95;36.79
64711;BME280;51139;45.626;6.850;2023-04-26T17:56:43;81810.78;;;8.01;37.30
64711;BME280;51139;45.626;6.850;2023-04-26T17:59:09;81819.56;;;8.03;36.84
64711;BME280;51139;45.626;6.850;2023-04-26T18:01:34;81823.38;;;8.10;37.73
64711;BME280;51139;45.626;6.850;2023-04-26T18:04:00;81827.88;;;8.17;36.80
64711;BME280;51139;45.626;6.850;2023-04-26T18:06:25;81826.41;;;8.07;36.82
64711;BME280;51139;45.626;6.850;2023-04-26T18:08:51;81830.19;;;7.96;37.77
64711;BME280;51139;45.626;6.850;2023-04-26T18:11:16;81831.44;;;8.12;37.82
64711;BME280;51139;45.626;6.850;2023-04-26T18:13:42;81826.47;;;7.99;37.86
64711;BME280;51139;45.626;6.850;2023-04-26T18:16:07;81833.06;;;7.65;37.73
64711;BME280;51139;45.626;6.850;2023-04-26T18:18:33;81840.81;;;7.63;37.72
64711;BME280;51139;45.626;6.850;2023-04-26T18:20:58;81841.72;;;7.57;38.61
64711;BME280;51139;45.626;6.850;2023-04-26T18:23:23;81837.94;;;7.68;38.37
64711;BME280;51139;45.626;6.850;2023-04-26T18:25:49;81843.44;;;7.63;39.29
64711;BME280;51139;45.626;6.850;2023-04-26T18:28:14;81848.69;;;7.88;38.89
64711;BME280;51139;45.626;6.850;2023-04-26T18:30:40;81853.13;;;7.60;39.13
64711;BME280;51139;45.626;6.850;2023-04-26T18:33:06;81851.72;;;7.84;39.64
64711;BME280;51139;45.626;6.850;2023-04-26T18:35:31;81856.34;;;7.51;40.10
64711;BME280;51139;45.626;6.850;2023-04-26T18:37:56;81856.25;;;7.66;40.09
64711;BME280;51139;45.626;6.850;2023-04-26T18:40:22;81858.69;;;7.72;40.28
64711;BME280;51139;45.626;6.850;2023-04-26T18:42:47;81853.34;;;7.54;40.47
64711;BME280;51139;45.626;6.850;2023-04-26T18:45:13;81861.69;;;7.68;41.11
64711;BME280;51139;45.626;6.850;2023-04-26T18:47:38;81858.44;;;7.27;42.98
64711;BME280;51139;45.626;6.850;2023-04-26T18:50:04;81861.44;;;7.23;44.35
64711;BME280;51139;45.626;6.850;2023-04-26T18:52:30;81871.44;;;7.50;43.82
64711;BME280;51139;45.626;6.850;2023-04-26T18:54:55;81864.97;;;7.51;44.10
64711;BME280;51139;45.626;6.850;2023-04-26T18:57:21;81868.44;;;7.28;45.64
64711;BME280;51139;45.626;6.850;2023-04-26T18:59:48;81867.09;;;7.12;45.83
64711;BME280;51139;45.626;6.850;2023-04-26T19:02:13;81879.44;;;7.35;44.83
64711;BME280;51139;45.626;6.850;2023-04-26T19:04:38;81880.19;;;7.61;44.04
64711;BME280;51139;45.626;6.850;2023-04-26T19:07:04;81883.91;;;7.83;44.76
64711;BME280;51139;45.626;6.850;2023-04-26T19:09:30;81881.41;;;7.34;45.56
64711;BME280;51139;45.626;6.850;2023-04-26T19:12:01;81880.78;;;7.18;45.98
64711;BME280;51139;45.626;6.850;2023-04-26T19:14:26;81887.94;;;7.25;45.58
64711;BME280;51139;45.626;6.850;2023-04-26T19:16:52;81890.16;;;7.37;44.92
64711;BME280;51139;45.626;6.850;2023-04-26T19:19:17;81887.69;;;7.39;44.39
64711;BME280;51139;45.626;6.850;2023-04-26T19:21:43;81897.53;;;7.38;44.85